Time;durP1;ratioP1;P1;durP2;ratioP2;P2;SDS_P1;SDS_P2;PMS_P1;PMS_P2;Temp;Humidity;BMP_temperature;BMP_pressure;BME280_temperature;BME280_humidity;BME280_pressure;Samples;Min_cycle;Max_cycle;Signal;HPM_P1;HPM_P2
2023/06/08 00:01:04;;;;;;;6.05;3.50;;;15.80;99.90;;;;;;5058783;28;20401;-77
2023/06/08 00:03:30;;;;;;;6.53;2.67;;;15.70;99.90;;;;;;5055036;28;20075;-77
2023/06/08 00:06:00;;;;;;;5.72;3.35;;;15.60;99.90;;;;;;5051267;28;20028;-77
2023/06/08 00:08:26;;;;;;;6.13;2.83;;;15.70;99.90;;;;;;5056155;28;20021;-76
2023/06/08 00:10:51;;;;;;;6.78;3.20;;;15.60;99.90;;;;;;5062974;28;20096;-77
2023/06/08 00:13:17;;;;;;;4.32;2.95;;;15.50;99.90;;;;;;5053914;28;20120;-76
2023/06/08 00:15:43;;;;;;;5.80;3.20;;;15.40;99.90;;;;;;5052696;28;20479;-77
2023/06/08 00:18:09;;;;;;;5.97;3.33;;;15.40;99.90;;;;;;5051403;28;20083;-77
2023/06/08 00:20:39;;;;;;;5.43;3.20;;;15.50;99.90;;;;;;5054119;28;20086;-76
2023/06/08 00:23:04;;;;;;;5.45;3.38;;;15.50;99.90;;;;;;5050973;28;20475;-76
2023/06/08 00:25:31;;;;;;;4.82;3.00;;;15.40;99.90;;;;;;5060260;28;20074;-76
2023/06/08 00:27:57;;;;;;;6.07;3.70;;;15.50;99.90;;;;;;5051858;28;20368;-76
2023/06/08 00:30:22;;;;;;;5.90;3.63;;;15.70;99.90;;;;;;5051178;28;20029;-77
2023/06/08 00:32:48;;;;;;;5.70;3.20;;;15.70;99.90;;;;;;5055028;28;20021;-77
2023/06/08 00:35:14;;;;;;;6.38;3.70;;;15.80;99.90;;;;;;5050753;28;20127;-77
2023/06/08 00:37:39;;;;;;;6.57;3.72;;;16.00;99.90;;;;;;5051301;28;20025;-77
2023/06/08 00:40:06;;;;;;;12.45;4.75;;;16.10;99.90;;;;;;5048807;28;20379;-77
2023/06/08 00:42:31;;;;;;;10.30;3.53;;;16.10;99.90;;;;;;5048735;28;20025;-77
2023/06/08 00:44:57;;;;;;;9.50;3.53;;;16.00;99.90;;;;;;5048632;28;20033;-77
2023/06/08 00:47:23;;;;;;;6.28;3.45;;;16.00;99.90;;;;;;5057687;28;20025;-77
2023/06/08 00:49:50;;;;;;;6.57;3.75;;;16.00;99.90;;;;;;5059157;28;20024;-77
2023/06/08 00:52:17;;;;;;;6.38;3.42;;;15.90;99.90;;;;;;5052951;28;20047;-77
2023/06/08 00:54:48;;;;;;;6.72;3.20;;;15.90;99.90;;;;;;5049825;28;20395;-77
2023/06/08 00:57:16;;;;;;;6.25;3.28;;;16.00;99.90;;;;;;5057781;28;20036;-77
2023/06/08 00:59:43;;;;;;;9.15;3.75;;;16.10;99.90;;;;;;5059894;28;20059;-77
2023/06/08 01:02:10;;;;;;;5.47;3.38;;;16.10;99.90;;;;;;5055691;28;20463;-76
2023/06/08 01:04:36;;;;;;;6.43;3.13;;;16.00;99.90;;;;;;5053206;28;20037;-77
2023/06/08 01:07:28;;;;;;;5.93;3.58;;;15.90;99.90;;;;;;5049722;28;20032;-77
2023/06/08 01:10:08;;;;;;;7.53;3.38;;;16.10;99.90;;;;;;5019819;28;20053;-76
2023/06/08 01:13:07;;;;;;;7.13;3.65;;;15.90;99.90;;;;;;5059281;28;20021;-76
2023/06/08 01:15:39;;;;;;;5.07;3.08;;;16.00;99.90;;;;;;5013955;28;20053;-77
2023/06/08 01:18:07;;;;;;;6.80;3.33;;;15.90;99.90;;;;;;5058827;28;20033;-77
2023/06/08 01:20:46;;;;;;;11.27;3.40;;;15.90;99.90;;;;;;5052503;28;20356;-77
2023/06/08 01:23:37;;;;;;;10.63;3.55;;;15.90;99.90;;;;;;5049882;28;20041;-77
2023/06/08 01:26:04;;;;;;;6.35;3.47;;;16.10;99.90;;;;;;5053455;28;20031;-77
2023/06/08 01:28:30;;;;;;;6.53;3.30;;;16.30;99.90;;;;;;5056562;28;20024;-76
2023/06/08 01:30:58;;;;;;;7.22;3.25;;;16.40;99.90;;;;;;5059170;28;20079;-76
2023/06/08 01:33:26;;;;;;;4.93;3.20;;;16.30;99.90;;;;;;5056655;28;20044;-76
2023/06/08 01:35:58;;;;;;;9.48;4.07;;;16.20;99.90;;;;;;5053797;28;20036;-77
2023/06/08 01:38:32;;;;;;;7.32;3.80;;;16.10;99.90;;;;;;5052285;28;20124;-76
2023/06/08 01:41:05;;;;;;;5.63;3.42;;;16.20;99.90;;;;;;5053682;28;20083;-77
2023/06/08 01:43:32;;;;;;;7.57;3.50;;;16.00;99.90;;;;;;5056448;28;20391;-77
2023/06/08 01:46:02;;;;;;;6.43;3.13;;;15.80;99.90;;;;;;5052071;28;20033;-77
2023/06/08 01:48:30;;;;;;;4.78;2.97;;;15.60;99.90;;;;;;5052693;28;20029;-77
2023/06/08 01:50:56;;;;;;;3.75;2.50;;;15.40;99.90;;;;;;5062544;28;20028;-77
2023/06/08 01:53:22;;;;;;;4.22;2.70;;;15.30;99.90;;;;;;5055732;28;20025;-77
2023/06/08 01:55:49;;;;;;;6.90;3.45;;;15.40;99.90;;;;;;5053181;28;20044;-78
2023/06/08 01:58:15;;;;;;;5.95;3.50;;;15.40;99.90;;;;;;5067478;28;20044;-77
2023/06/08 02:00:41;;;;;;;4.72;2.70;;;15.40;99.90;;;;;;5057385;28;20382;-77
2023/06/08 02:03:06;;;;;;;5.60;3.40;;;15.40;99.90;;;;;;5052555;28;20509;-77
2023/06/08 02:05:32;;;;;;;5.28;3.00;;;15.30;99.90;;;;;;5050846;28;20066;-76
2023/06/08 02:07:58;;;;;;;6.03;3.97;;;15.30;99.90;;;;;;5054989;28;20025;-76
2023/06/08 02:10:23;;;;;;;4.90;3.00;;;15.30;99.90;;;;;;5049522;28;20162;-77
2023/06/08 02:12:49;;;;;;;6.47;3.38;;;15.50;99.90;;;;;;5048266;28;20028;-76
2023/06/08 02:15:15;;;;;;;6.20;3.58;;;15.40;99.90;;;;;;5048908;28;20036;-77
2023/06/08 02:17:42;;;;;;;6.25;3.33;;;15.50;99.90;;;;;;5054314;28;20105;-77
2023/06/08 02:20:09;;;;;;;7.53;3.55;;;15.60;99.90;;;;;;5053135;28;20029;-77
2023/06/08 02:22:36;;;;;;;5.30;3.40;;;15.50;99.90;;;;;;5053536;28;20107;-77
2023/06/08 02:25:07;;;;;;;4.93;3.10;;;15.40;99.90;;;;;;5050062;28;20037;-76
2023/06/08 02:27:36;;;;;;;5.55;3.42;;;15.30;99.90;;;;;;5064308;28;20029;-76
2023/06/08 02:30:03;;;;;;;7.45;4.28;;;15.20;99.90;;;;;;5054061;28;20051;-76
2023/06/08 02:32:32;;;;;;;5.10;3.30;;;15.20;99.90;;;;;;5060910;28;20028;-76
2023/06/08 02:35:02;;;;;;;5.95;3.28;;;15.20;99.90;;;;;;5055653;28;20043;-76
2023/06/08 02:37:28;;;;;;;5.88;3.97;;;15.30;99.90;;;;;;5048232;28;20483;-77
2023/06/08 02:39:53;;;;;;;5.30;3.47;;;15.20;99.90;;;;;;5052473;28;20035;-77
2023/06/08 02:42:19;;;;;;;5.15;3.03;;;15.20;99.90;;;;;;5051213;28;20029;-77
2023/06/08 02:44:46;;;;;;;6.03;3.38;;;15.20;99.90;;;;;;5055916;28;20047;-77
2023/06/08 02:47:13;;;;;;;5.70;3.25;;;15.10;99.90;;;;;;5064810;28;20115;-76
2023/06/08 02:49:38;;;;;;;6.68;3.90;;;15.10;99.90;;;;;;5056964;28;20126;-77
2023/06/08 02:52:04;;;;;;;7.07;3.70;;;15.10;99.90;;;;;;5048812;28;20510;-77
2023/06/08 02:54:30;;;;;;;7.40;3.70;;;15.10;99.90;;;;;;5055494;28;20033;-77
2023/06/08 02:56:56;;;;;;;5.40;3.30;;;15.00;99.90;;;;;;5059199;28;20048;-76
2023/06/08 02:59:22;;;;;;;7.38;3.60;;;15.10;99.90;;;;;;5055855;28;20033;-76
2023/06/08 03:01:53;;;;;;;5.13;3.15;;;15.10;99.90;;;;;;5056637;28;20111;-76
2023/06/08 03:04:24;;;;;;;5.50;3.60;;;15.00;99.90;;;;;;5047025;28;20029;-77
2023/06/08 03:06:53;;;;;;;6.65;3.58;;;15.00;99.90;;;;;;5048882;28;20073;-77
2023/06/08 03:09:29;;;;;;;6.30;3.83;;;15.00;99.90;;;;;;5051503;28;20707;-77
2023/06/08 03:11:56;;;;;;;5.82;3.53;;;14.90;99.90;;;;;;5049312;28;20686;-77
2023/06/08 03:14:28;;;;;;;6.25;3.30;;;14.70;99.90;;;;;;5052951;28;20036;-77
2023/06/08 03:17:03;;;;;;;9.75;3.75;;;14.60;99.90;;;;;;5051270;28;20055;-77
2023/06/08 03:19:32;;;;;;;5.97;3.40;;;14.80;99.90;;;;;;5047194;28;20071;-77
2023/06/08 03:22:04;;;;;;;7.38;3.75;;;14.70;99.90;;;;;;5044128;28;20069;-77
2023/06/08 03:24:33;;;;;;;7.05;3.40;;;14.70;99.90;;;;;;5047626;28;20020;-77
2023/06/08 03:26:59;;;;;;;7.00;3.47;;;14.70;99.90;;;;;;5048920;28;20596;-77
2023/06/08 03:29:26;;;;;;;9.07;4.10;;;14.60;99.90;;;;;;5046167;28;20032;-78
2023/06/08 03:31:52;;;;;;;8.95;4.70;;;14.90;99.90;;;;;;5053462;28;20036;-77
2023/06/08 03:34:18;;;;;;;7.82;4.97;;;15.20;99.90;;;;;;5054270;28;20042;-77
2023/06/08 03:36:44;;;;;;;8.32;4.25;;;15.20;99.90;;;;;;5057976;28;20020;-77
2023/06/08 03:39:11;;;;;;;6.72;3.83;;;15.10;99.90;;;;;;5046240;28;20036;-77
2023/06/08 03:41:37;;;;;;;5.78;3.15;;;15.00;99.90;;;;;;5045310;28;20384;-77
2023/06/08 03:44:03;;;;;;;7.28;3.78;;;14.90;99.90;;;;;;5044495;28;20040;-77
2023/06/08 03:46:28;;;;;;;7.65;3.83;;;14.80;99.90;;;;;;5045763;28;20406;-76
2023/06/08 03:48:54;;;;;;;5.88;3.33;;;14.70;99.90;;;;;;5044375;28;20036;-76
2023/06/08 03:51:21;;;;;;;5.25;3.45;;;14.70;99.90;;;;;;5045630;28;20029;-77
2023/06/08 03:53:47;;;;;;;5.75;3.10;;;14.80;99.90;;;;;;5047420;28;20044;-76
2023/06/08 03:56:13;;;;;;;6.20;3.60;;;14.80;99.90;;;;;;5044644;28;20110;-77
2023/06/08 03:58:41;;;;;;;7.55;3.67;;;14.90;99.90;;;;;;5046681;28;20071;-77
2023/06/08 04:01:14;;;;;;;9.63;4.05;;;14.80;99.90;;;;;;5061331;28;20036;-76
2023/06/08 04:03:41;;;;;;;5.40;3.45;;;14.90;99.90;;;;;;5044479;28;20036;-77
2023/06/08 04:06:08;;;;;;;9.25;3.30;;;15.10;99.90;;;;;;5043878;28;20021;-76
2023/06/08 04:08:44;;;;;;;11.48;3.90;;;15.10;99.90;;;;;;5056683;28;20035;-76
2023/06/08 04:11:11;;;;;;;7.05;4.03;;;15.10;99.90;;;;;;5058458;28;20048;-77
2023/06/08 04:13:38;;;;;;;5.35;2.85;;;15.10;99.90;;;;;;5046906;28;20032;-76
2023/06/08 04:16:08;;;;;;;5.63;3.70;;;15.10;99.90;;;;;;5047527;28;20045;-77
2023/06/08 04:18:35;;;;;;;10.70;3.30;;;15.00;99.90;;;;;;5051169;28;20021;-77
2023/06/08 04:21:01;;;;;;;6.47;4.28;;;15.10;99.90;;;;;;5047377;28;20089;-77
2023/06/08 04:23:27;;;;;;;9.07;3.95;;;15.10;99.90;;;;;;5044221;28;20029;-76
2023/06/08 04:25:53;;;;;;;8.05;3.90;;;15.20;99.90;;;;;;5045349;28;20060;-76
2023/06/08 04:28:21;;;;;;;9.00;4.10;;;15.20;99.90;;;;;;5049440;28;20033;-77
2023/06/08 04:30:50;;;;;;;6.93;3.33;;;15.20;99.90;;;;;;5048190;28;20028;-77
2023/06/08 04:33:16;;;;;;;7.43;3.72;;;15.00;99.90;;;;;;5049362;28;20475;-77
2023/06/08 04:35:42;;;;;;;6.95;3.30;;;15.00;99.90;;;;;;5048540;28;20094;-77
2023/06/08 04:38:14;;;;;;;6.40;3.88;;;14.90;99.90;;;;;;5044612;28;20086;-77
2023/06/08 04:40:53;;;;;;;7.35;3.33;;;15.10;99.90;;;;;;5056729;28;20082;-77
2023/06/08 04:43:20;;;;;;;7.35;3.33;;;15.20;99.90;;;;;;5044275;28;20037;-77
2023/06/08 04:45:55;;;;;;;7.43;3.60;;;15.20;99.90;;;;;;5045815;28;20029;-77
2023/06/08 04:48:21;;;;;;;6.18;3.38;;;15.10;99.90;;;;;;5043505;28;20021;-77
2023/06/08 04:50:50;;;;;;;5.40;3.53;;;15.20;99.90;;;;;;5046428;28;20029;-76
2023/06/08 04:53:16;;;;;;;6.20;3.70;;;15.00;99.90;;;;;;5044820;28;20056;-77
2023/06/08 04:55:44;;;;;;;6.25;3.75;;;15.10;99.90;;;;;;5046760;28;20033;-77
2023/06/08 04:58:11;;;;;;;9.10;3.60;;;15.20;99.90;;;;;;5054911;28;20604;-76
2023/06/08 05:00:37;;;;;;;5.75;3.72;;;15.20;99.90;;;;;;5057476;28;20036;-77
2023/06/08 05:03:03;;;;;;;6.28;3.47;;;15.00;99.90;;;;;;5047162;28;20094;-77
2023/06/08 05:05:28;;;;;;;5.80;3.40;;;15.00;99.90;;;;;;5049646;28;20094;-76
2023/06/08 05:07:54;;;;;;;6.50;4.05;;;14.90;99.90;;;;;;5049623;28;20464;-76
2023/06/08 05:10:20;;;;;;;6.47;3.50;;;15.00;99.90;;;;;;5049633;28;20040;-76
2023/06/08 05:12:46;;;;;;;7.00;3.33;;;15.00;99.90;;;;;;5052163;28;20060;-76
2023/06/08 05:15:11;;;;;;;7.95;3.88;;;15.20;99.90;;;;;;5044497;28;20383;-77
2023/06/08 05:17:37;;;;;;;11.00;3.72;;;15.30;99.90;;;;;;5045157;28;20036;-77
2023/06/08 05:20:03;;;;;;;7.30;4.00;;;15.40;99.90;;;;;;5060668;28;20036;-77
2023/06/08 05:22:29;;;;;;;8.50;3.78;;;15.30;99.90;;;;;;5046815;28;20484;-77
2023/06/08 05:24:54;;;;;;;6.38;4.07;;;15.30;99.90;;;;;;5062930;28;20028;-77
2023/06/08 05:27:20;;;;;;;6.22;3.83;;;15.40;99.90;;;;;;5056258;28;20051;-77
2023/06/08 05:29:46;;;;;;;7.68;3.78;;;15.40;99.90;;;;;;5044044;28;20060;-77
2023/06/08 05:32:11;;;;;;;8.98;3.90;;;15.40;99.90;;;;;;5047575;28;20021;-78
2023/06/08 05:34:37;;;;;;;6.95;3.60;;;15.30;99.90;;;;;;5045044;28;20115;-78
2023/06/08 05:37:03;;;;;;;7.53;3.80;;;15.20;99.90;;;;;;5043081;28;20021;-79
2023/06/08 05:39:28;;;;;;;11.13;3.83;;;15.20;99.90;;;;;;5054649;28;20274;-78
2023/06/08 05:41:54;;;;;;;6.63;4.32;;;15.30;99.90;;;;;;5043665;28;20057;-79
2023/06/08 05:44:19;;;;;;;6.70;3.83;;;15.40;99.90;;;;;;5042093;28;20300;-77
2023/06/08 05:46:45;;;;;;;11.23;4.07;;;15.40;99.90;;;;;;5051229;28;20471;-79
2023/06/08 05:49:11;;;;;;;6.10;4.40;;;15.50;99.90;;;;;;5050469;28;20037;-79
2023/06/08 05:51:36;;;;;;;9.18;3.83;;;15.60;99.90;;;;;;5047001;28;20529;-79
2023/06/08 05:54:02;;;;;;;8.20;4.35;;;15.70;99.90;;;;;;5051958;28;20029;-80
2023/06/08 05:56:28;;;;;;;10.48;4.00;;;15.80;99.90;;;;;;5048143;28;20624;-81
2023/06/08 05:58:54;;;;;;;8.73;4.15;;;15.80;99.90;;;;;;5044971;28;20056;-77
2023/06/08 06:01:20;;;;;;;10.55;4.65;;;15.80;99.90;;;;;;5050743;28;20053;-77
2023/06/08 06:03:46;;;;;;;8.75;4.18;;;15.80;99.90;;;;;;5043654;28;20025;-77
2023/06/08 06:06:12;;;;;;;6.85;4.10;;;15.80;99.90;;;;;;5045603;28;20020;-76
2023/06/08 06:08:38;;;;;;;6.05;3.80;;;15.90;99.90;;;;;;5041716;28;20549;-77
2023/06/08 06:11:03;;;;;;;6.25;3.60;;;15.90;99.90;;;;;;5041869;28;20047;-77
2023/06/08 06:13:31;;;;;;;7.43;4.20;;;16.00;99.90;;;;;;5044921;28;20032;-77
2023/06/08 06:15:58;;;;;;;6.45;3.63;;;16.00;99.90;;;;;;5042495;28;20029;-77
2023/06/08 06:18:23;;;;;;;6.68;4.30;;;16.20;99.90;;;;;;5044464;28;20407;-77
2023/06/08 06:20:50;;;;;;;9.60;4.20;;;16.20;99.90;;;;;;5041214;28;20035;-77
2023/06/08 06:23:16;;;;;;;7.03;3.83;;;16.30;99.90;;;;;;5044811;28;20039;-77
2023/06/08 06:25:41;;;;;;;7.72;4.15;;;16.40;99.90;;;;;;5051453;28;20028;-77
2023/06/08 06:28:07;;;;;;;9.90;4.85;;;16.40;99.90;;;;;;5045110;28;20047;-77
2023/06/08 06:30:32;;;;;;;6.10;3.92;;;16.50;99.90;;;;;;5044031;28;20528;-78
2023/06/08 06:32:58;;;;;;;6.75;3.97;;;16.60;99.90;;;;;;5053245;28;20075;-76
2023/06/08 06:35:24;;;;;;;7.57;4.45;;;16.60;99.90;;;;;;5050747;28;20044;-77
2023/06/08 06:37:53;;;;;;;6.60;4.07;;;16.60;99.90;;;;;;5043568;28;20120;-77
2023/06/08 06:40:19;;;;;;;8.68;4.38;;;16.60;99.90;;;;;;5045334;28;20051;-78
2023/06/08 06:42:44;;;;;;;8.00;3.95;;;16.70;99.90;;;;;;5050238;28;20526;-77
2023/06/08 06:45:11;;;;;;;19.73;5.20;;;16.80;99.90;;;;;;5043106;28;20079;-77
2023/06/08 06:47:38;;;;;;;7.28;4.55;;;16.90;99.90;;;;;;5050590;28;20513;-77
2023/06/08 06:50:04;;;;;;;7.80;3.80;;;16.90;99.90;;;;;;5044842;28;20082;-78
2023/06/08 06:52:29;;;;;;;7.65;4.35;;;17.00;99.90;;;;;;5045838;28;20036;-77
2023/06/08 06:54:55;;;;;;;5.60;3.85;;;17.10;99.90;;;;;;5048453;28;20033;-77
2023/06/08 06:57:21;;;;;;;7.68;3.80;;;17.30;99.90;;;;;;5051331;28;20048;-77
2023/06/08 06:59:48;;;;;;;7.05;3.90;;;17.40;99.90;;;;;;5056960;28;20033;-77
2023/06/08 07:02:14;;;;;;;12.63;4.93;;;17.70;99.90;;;;;;5042860;28;20056;-77
2023/06/08 07:04:40;;;;;;;7.68;5.13;;;17.90;99.90;;;;;;5047406;28;20039;-76
2023/06/08 07:07:08;;;;;;;7.53;3.83;;;18.00;99.90;;;;;;5049426;28;20025;-77
2023/06/08 07:09:36;;;;;;;8.32;4.50;;;18.30;99.90;;;;;;5052053;28;20548;-77
2023/06/08 07:12:02;;;;;;;7.32;4.00;;;18.50;99.90;;;;;;5047612;28;20028;-77
2023/06/08 07:14:29;;;;;;;7.47;4.25;;;18.80;99.90;;;;;;5045529;28;20073;-77
2023/06/08 07:16:55;;;;;;;9.40;4.30;;;19.00;99.90;;;;;;5042813;28;20040;-77
2023/06/08 07:19:21;;;;;;;9.77;4.07;;;19.20;99.90;;;;;;5044693;28;20467;-77
2023/06/08 07:21:46;;;;;;;6.88;4.45;;;19.50;99.90;;;;;;5047492;28;20025;-76
2023/06/08 07:24:12;;;;;;;6.43;4.07;;;19.40;99.90;;;;;;5044789;28;20076;-77
2023/06/08 07:26:37;;;;;;;7.90;4.32;;;19.60;99.90;;;;;;5043755;28;20036;-77
2023/06/08 07:29:03;;;;;;;7.03;3.97;;;20.20;99.90;;;;;;5044316;28;20036;-77
2023/06/08 07:31:29;;;;;;;8.57;4.22;;;21.40;99.90;;;;;;5044881;28;20036;-77
2023/06/08 07:33:56;;;;;;;6.33;4.37;;;22.20;99.90;;;;;;5049461;28;20474;-75
2023/06/08 07:36:22;;;;;;;7.72;4.25;;;22.70;98.50;;;;;;5046964;28;20072;-75
2023/06/08 07:38:51;;;;;;;6.53;4.30;;;23.40;98.40;;;;;;5049264;28;20037;-75
2023/06/08 07:41:19;;;;;;;8.30;4.28;;;24.20;97.10;;;;;;5040460;28;20032;-75
2023/06/08 07:43:45;;;;;;;7.43;4.05;;;24.20;96.10;;;;;;5041220;28;20033;-75
2023/06/08 07:46:12;;;;;;;6.25;3.60;;;24.30;96.30;;;;;;5041205;28;20089;-76
2023/06/08 07:48:37;;;;;;;6.30;4.05;;;24.10;96.50;;;;;;5043456;28;20127;-76
2023/06/08 07:51:03;;;;;;;6.10;3.90;;;23.10;97.10;;;;;;5049237;28;20668;-76
2023/06/08 07:53:36;;;;;;;6.22;4.60;;;23.00;97.50;;;;;;5042547;28;20087;-76
2023/06/08 07:56:02;;;;;;;7.72;4.25;;;22.50;97.10;;;;;;5043179;28;20045;-76
2023/06/08 07:58:28;;;;;;;7.68;4.00;;;22.50;98.20;;;;;;5045960;28;20048;-76
2023/06/08 08:00:54;;;;;;;7.30;4.35;;;22.30;98.30;;;;;;5045436;28;20043;-75
2023/06/08 08:03:20;;;;;;;7.75;4.40;;;21.80;99.20;;;;;;5047426;28;20085;-76
2023/06/08 08:05:48;;;;;;;7.45;4.15;;;22.10;98.60;;;;;;5049361;28;20439;-76
2023/06/08 08:08:14;;;;;;;7.05;4.85;;;21.90;98.80;;;;;;5044379;28;20024;-76
2023/06/08 08:10:40;;;;;;;7.40;4.13;;;22.00;98.90;;;;;;5049782;28;20522;-76
2023/06/08 08:13:05;;;;;;;5.93;3.72;;;22.30;99.70;;;;;;5044947;28;20036;-76
2023/06/08 08:15:31;;;;;;;7.65;4.20;;;22.40;99.80;;;;;;5044045;28;20095;-76
2023/06/08 08:17:56;;;;;;;6.43;4.05;;;22.30;99.30;;;;;;5045422;28;20037;-76
2023/06/08 08:20:22;;;;;;;8.13;4.65;;;22.30;99.70;;;;;;5046564;28;20040;-76
2023/06/08 08:22:48;;;;;;;6.68;4.15;;;22.00;99.90;;;;;;5057486;28;20111;-76
2023/06/08 08:25:13;;;;;;;6.05;4.53;;;21.90;99.50;;;;;;5049824;28;20644;-76
2023/06/08 08:27:39;;;;;;;8.50;4.63;;;22.20;99.90;;;;;;5050680;28;20031;-76
2023/06/08 08:30:06;;;;;;;6.63;4.03;;;22.40;99.90;;;;;;5056337;28;20211;-76
2023/06/08 08:32:31;;;;;;;7.65;4.20;;;22.50;99.90;;;;;;5051175;28;20025;-76
2023/06/08 08:34:57;;;;;;;6.88;3.88;;;22.50;99.70;;;;;;5050793;28;20044;-76
2023/06/08 08:37:22;;;;;;;6.60;4.80;;;22.30;99.50;;;;;;5049729;28;20032;-76
2023/06/08 08:39:48;;;;;;;6.13;3.97;;;22.40;98.70;;;;;;5055084;28;20091;-76
2023/06/08 08:42:21;;;;;;;9.35;5.32;;;22.60;99.20;;;;;;5052419;28;20032;-76
2023/06/08 08:44:49;;;;;;;8.48;4.72;;;22.90;99.00;;;;;;5046646;28;20037;-76
2023/06/08 08:47:15;;;;;;;7.68;4.93;;;23.10;99.00;;;;;;5057617;28;20498;-76
2023/06/08 08:49:43;;;;;;;6.70;4.22;;;23.10;98.90;;;;;;5054587;28;20082;-76
2023/06/08 08:52:10;;;;;;;9.65;4.72;;;23.30;98.90;;;;;;5053790;28;20061;-76
2023/06/08 08:54:38;;;;;;;9.60;4.93;;;23.20;98.60;;;;;;5050236;28;20041;-79
2023/06/08 08:57:06;;;;;;;6.35;4.22;;;23.20;98.80;;;;;;5049800;28;20460;-79
2023/06/08 08:59:33;;;;;;;8.70;4.32;;;23.30;98.50;;;;;;5053133;28;20040;-79
2023/06/08 09:01:59;;;;;;;9.38;5.25;;;23.30;97.90;;;;;;5053771;28;20087;-79
2023/06/08 09:04:25;;;;;;;14.07;4.95;;;23.40;97.70;;;;;;5048854;28;20544;-79
2023/06/08 09:06:51;;;;;;;8.15;4.90;;;23.00;97.90;;;;;;5051780;28;20029;-79
2023/06/08 09:09:17;;;;;;;8.45;5.28;;;23.50;97.70;;;;;;5051333;28;20115;-78
2023/06/08 09:12:00;;;;;;;6.35;4.47;;;23.80;97.20;;;;;;5055940;28;20116;-79
2023/06/08 09:14:27;;;;;;;7.05;4.38;;;23.80;97.80;;;;;;5055490;28;20043;-78
2023/06/08 09:16:53;;;;;;;8.52;5.38;;;23.80;97.70;;;;;;5056161;28;20102;-79
2023/06/08 09:19:20;;;;;;;7.93;5.10;;;23.80;97.20;;;;;;5047901;28;20364;-79
2023/06/08 09:21:46;;;;;;;7.05;4.55;;;23.80;97.50;;;;;;5051212;28;20039;-79
2023/06/08 09:24:22;;;;;;;7.07;4.38;;;23.50;97.20;;;;;;5042693;28;20541;-79
2023/06/08 09:26:53;;;;;;;8.15;4.85;;;24.00;97.10;;;;;;5047736;28;20097;-79
2023/06/08 09:29:34;;;;;;;8.32;5.30;;;24.00;97.10;;;;;;5046050;28;20029;-79
2023/06/08 09:32:03;;;;;;;8.65;4.72;;;24.10;98.20;;;;;;5048040;28;20520;-79
2023/06/08 09:34:29;;;;;;;7.82;4.90;;;24.20;97.60;;;;;;5051899;28;20044;-79
2023/06/08 09:37:09;;;;;;;7.03;5.03;;;24.20;96.40;;;;;;5057025;28;20531;-79
2023/06/08 09:39:42;;;;;;;6.40;4.30;;;24.30;96.80;;;;;;5044218;28;20057;-79
2023/06/08 09:42:08;;;;;;;9.05;5.18;;;24.70;95.80;;;;;;5045905;28;20029;-78
2023/06/08 09:44:35;;;;;;;12.15;5.30;;;24.60;96.80;;;;;;5060235;28;20036;-79
2023/06/08 09:47:18;;;;;;;5.88;4.50;;;24.80;98.30;;;;;;5060029;28;20025;-79
2023/06/08 09:49:44;;;;;;;7.47;4.90;;;24.80;96.90;;;;;;5055552;28;20036;-79
2023/06/08 09:52:10;;;;;;;9.18;4.38;;;24.40;94.90;;;;;;5053068;28;20025;-79
2023/06/08 09:54:36;;;;;;;7.32;4.38;;;24.90;94.40;;;;;;5058143;28;20045;-79
2023/06/08 09:57:04;;;;;;;6.55;4.45;;;25.00;94.90;;;;;;5048700;28;20028;-79
2023/06/08 09:59:50;;;;;;;6.55;3.90;;;25.10;96.10;;;;;;5054138;28;20025;-78
2023/06/08 10:02:30;;;;;;;6.03;3.58;;;25.30;95.00;;;;;;5055289;28;20090;-80
2023/06/08 10:05:02;;;;;;;6.53;3.95;;;25.70;95.40;;;;;;5059507;28;20032;-79
2023/06/08 10:07:35;;;;;;;6.10;3.67;;;25.80;94.40;;;;;;5054414;28;20028;-78
2023/06/08 10:10:25;;;;;;;6.68;4.00;;;25.80;94.80;;;;;;5049607;28;20025;-79
2023/06/08 10:12:52;;;;;;;7.28;3.70;;;25.60;95.10;;;;;;5054522;28;20039;-79
2023/06/08 10:15:19;;;;;;;6.82;3.58;;;26.00;94.60;;;;;;5051405;28;20047;-79
2023/06/08 10:17:46;;;;;;;6.47;4.13;;;25.90;94.20;;;;;;5054739;28;20039;-79
2023/06/08 10:20:12;;;;;;;9.40;4.47;;;25.90;94.20;;;;;;5053963;28;20021;-80
2023/06/08 10:22:40;;;;;;;7.60;3.67;;;26.10;94.00;;;;;;5050539;28;20043;-79
2023/06/08 10:25:07;;;;;;;7.40;3.92;;;26.10;94.00;;;;;;5060506;28;20036;-79
2023/06/08 10:27:33;;;;;;;5.88;3.70;;;26.30;94.00;;;;;;5054393;28;20032;-79
2023/06/08 10:30:00;;;;;;;5.60;3.25;;;26.20;94.10;;;;;;5048805;28;20050;-80
2023/06/08 10:32:31;;;;;;;6.55;4.32;;;26.00;94.00;;;;;;5046628;28;20056;-79
2023/06/08 10:34:58;;;;;;;5.78;3.42;;;25.60;95.00;;;;;;5048996;28;20040;-79
2023/06/08 10:37:31;;;;;;;5.05;3.28;;;25.50;94.90;;;;;;5050565;28;20078;-79
2023/06/08 10:40:06;;;;;;;6.63;3.45;;;25.90;96.30;;;;;;5049492;28;20827;-79
2023/06/08 10:42:32;;;;;;;6.80;3.85;;;25.90;94.40;;;;;;5056292;28;20128;-78
2023/06/08 10:44:59;;;;;;;5.47;2.90;;;25.50;95.10;;;;;;5052062;28;20024;-79
2023/06/08 10:47:26;;;;;;;8.82;4.57;;;26.20;94.70;;;;;;5059385;28;20064;-79
2023/06/08 10:50:03;;;;;;;5.75;3.15;;;26.30;94.70;;;;;;5053938;28;20033;-79
2023/06/08 10:52:39;;;;;;;6.20;3.38;;;25.80;94.10;;;;;;5049774;28;20021;-79
2023/06/08 10:55:11;;;;;;;5.47;3.38;;;26.10;94.80;;;;;;5055184;28;20040;-79
2023/06/08 10:57:44;;;;;;;4.40;2.40;;;26.30;95.70;;;;;;5062190;28;20053;-79
2023/06/08 11:00:31;;;;;;;4.53;2.53;;;26.40;94.50;;;;;;5051448;28;20036;-80
2023/06/08 11:03:00;;;;;;;5.72;2.72;;;26.70;94.70;;;;;;5054070;28;20433;-79
2023/06/08 11:05:30;;;;;;;4.25;2.33;;;27.00;94.40;;;;;;5044344;28;20025;-79
2023/06/08 11:07:56;;;;;;;5.22;2.70;;;27.20;94.60;;;;;;5059040;28;20028;-80
2023/06/08 11:10:23;;;;;;;4.57;2.97;;;27.40;93.00;;;;;;5049678;28;20025;-80
2023/06/08 11:12:49;;;;;;;4.57;2.30;;;27.70;93.60;;;;;;5048443;28;20411;-80
2023/06/08 11:15:15;;;;;;;3.92;2.03;;;27.90;92.30;;;;;;5050534;28;20041;-80
2023/06/08 11:17:44;;;;;;;4.25;2.22;;;27.40;91.10;;;;;;5047223;28;20021;-80
2023/06/08 11:20:13;;;;;;;4.03;2.13;;;27.40;92.90;;;;;;5052497;28;20581;-79
2023/06/08 11:22:39;;;;;;;4.93;2.78;;;27.70;92.40;;;;;;5062258;28;20032;-79
2023/06/08 11:25:07;;;;;;;5.75;2.33;;;27.80;91.90;;;;;;5058658;28;20506;-80
2023/06/08 11:27:33;;;;;;;3.67;1.95;;;27.60;92.50;;;;;;5052353;28;20115;-79
2023/06/08 11:29:58;;;;;;;4.65;2.13;;;27.70;90.50;;;;;;5056683;28;20111;-80
2023/06/08 11:32:26;;;;;;;4.65;1.70;;;27.50;90.60;;;;;;5059661;28;20024;-79
2023/06/08 11:34:53;;;;;;;3.90;1.55;;;27.70;90.40;;;;;;5051145;28;20040;-80
2023/06/08 11:37:19;;;;;;;4.57;1.60;;;27.90;91.10;;;;;;5059091;28;20040;-79
2023/06/08 11:39:46;;;;;;;5.55;2.00;;;28.10;90.50;;;;;;5048129;28;20032;-79
2023/06/08 11:42:12;;;;;;;4.75;1.83;;;28.00;90.20;;;;;;5055272;28;20379;-80
2023/06/08 11:44:37;;;;;;;3.53;1.92;;;28.00;91.10;;;;;;5050512;28;20063;-80
2023/06/08 11:47:04;;;;;;;6.25;2.70;;;28.00;91.60;;;;;;5051291;28;20032;-79
2023/06/08 11:49:55;;;;;;;5.75;2.03;;;27.80;91.00;;;;;;5063781;28;20463;-79
2023/06/08 11:52:30;;;;;;;4.75;2.60;;;28.20;91.60;;;;;;5050870;28;20033;-79
2023/06/08 11:54:59;;;;;;;6.75;2.30;;;28.20;91.50;;;;;;5052243;28;20029;-76
2023/06/08 11:57:41;;;;;;;7.22;2.85;;;28.00;92.30;;;;;;5044410;28;20461;-77
2023/06/08 12:00:11;;;;;;;3.80;2.17;;;27.80;92.40;;;;;;5044061;28;20032;-77
2023/06/08 12:02:38;;;;;;;3.92;1.95;;;27.70;92.80;;;;;;5065057;28;20060;-77
2023/06/08 12:05:06;;;;;;;4.35;2.78;;;27.50;91.80;;;;;;5055894;28;20029;-77
2023/06/08 12:07:35;;;;;;;3.85;1.85;;;27.50;91.00;;;;;;5045181;28;20043;-77
2023/06/08 12:10:01;;;;;;;3.75;2.05;;;27.70;91.10;;;;;;5053214;28;20104;-77
2023/06/08 12:12:28;;;;;;;4.07;2.53;;;27.60;91.30;;;;;;5044305;28;20076;-77
2023/06/08 12:14:55;;;;;;;4.20;2.50;;;27.80;92.80;;;;;;5044151;28;20044;-77
2023/06/08 12:17:26;;;;;;;3.50;2.15;;;27.90;91.70;;;;;;5046937;28;20744;-77
2023/06/08 12:19:53;;;;;;;3.88;1.52;;;28.20;91.50;;;;;;5053378;28;20093;-77
2023/06/08 12:22:19;;;;;;;6.93;2.45;;;28.30;91.40;;;;;;5045740;28;20094;-77
2023/06/08 12:24:45;;;;;;;4.10;2.30;;;28.30;92.00;;;;;;5048254;28;20479;-77
2023/06/08 12:27:11;;;;;;;4.68;2.33;;;28.60;91.80;;;;;;5049375;28;20043;-77
2023/06/08 12:29:37;;;;;;;4.05;2.22;;;28.20;91.50;;;;;;5048843;28;21014;-77
2023/06/08 12:32:04;;;;;;;4.38;2.25;;;28.00;91.30;;;;;;5043461;28;20351;-77
2023/06/08 12:34:33;;;;;;;4.72;2.17;;;28.20;91.90;;;;;;5044936;28;20076;-77
2023/06/08 12:36:59;;;;;;;3.70;2.28;;;28.40;91.60;;;;;;5042813;28;20512;-78
2023/06/08 12:39:25;;;;;;;4.75;3.03;;;28.20;91.70;;;;;;5049348;28;20064;-77
2023/06/08 12:41:51;;;;;;;6.00;2.65;;;28.10;92.10;;;;;;5047082;28;20112;-78
2023/06/08 12:44:17;;;;;;;4.72;2.28;;;28.10;91.70;;;;;;5044064;28;20041;-77
2023/06/08 12:46:43;;;;;;;4.15;2.45;;;27.90;91.00;;;;;;5049624;28;20530;-78
2023/06/08 12:49:09;;;;;;;3.90;2.33;;;27.90;90.90;;;;;;5047545;28;20103;-78